Melbourne, KY (41059)

2:34 AM EST on November 22, 2017 (GMT -0500)
cold spring ky | | Change Station

Elev 823 ft 39.02 °N, 84.41 °W | Updated 11 minutes ago

Partly Cloudy
Partly Cloudy
34.8 °F
Feels Like 30 °F
N
5.0
Wind Variable Wind from NNW
Gusts 6.0 mph

Today
High -- | Low -- °F
--% Chance of Precip.
Yesterday
High -- | Low -- °F
Precip. -- in
Pressure 30.17 in
Visibility 10.0 miles
Clouds Mostly Cloudy 2800 ft
Windchill 30 °F
Dew Point 30 °F
Humidity 82%
Rainfall 0.00 in
Snow Depth Not available.
7:28 AM 5:18 PM
Waxing Crescent, 13% visible
SPECI KLUK 220717Z AUTO 31006KT 10SM BKN028 02/M01 A3017 RMK AO2 T00221011
Pressure 30.17 in
Visibility 10.0 miles
Clouds Mostly Cloudy 2800 ft
Windchill 30 °F
Dew Point 30 °F
Humidity 82%
Rainfall 0.00 in
Snow Depth Not available.
7:28 AM 5:18 PM
Waxing Crescent, 13% visible
SPECI KLUK 220717Z AUTO 31006KT 10SM BKN028 02/M01 A3017 RMK AO2 T00221011

Get Severe Weather Alerts

Thanks for signing up!

Be on the lookout for a verification email in your inbox.

You'll start receiving the daily forecast at 6 AM.

×

10-Day Weather Forecast

Almanac

Astronomy

Nov. 22, 2017 Rise Set
Actual Time
Civil Twilight
Nautical Twilight
Astronomical Twilight
Moon
Length of Visible Light
Length of Day
Tomorrow will be .
, % of the Moon is Illuminated

Today's Extremes

State Highs State Lows

Community

WunderPhotos

Category 6

Welcome to Category 6. This is the collective home for Weather Underground's featured writeups by Dr. Jeff Masters (right), Bob Henson (left), Chris Burt, and other regular contributors.

Nearby

Air Quality

  Air Quality AQ Index Pollutant
Not available.

Snow Depth

Station Depth Elevation

Earthquake Activity

City Distance Mag. Time & Date
Minimum magnitude displayed is 2.5.

Coastal Water Temperatures

Place Temperature

Stations

Nearby Weather Stations

Station Location Temp. Windchill Dew Point Humidity Wind Precip. Elev Updated Type
                   

Watches & Warnings

There are currently no watches in effect.